createdAt,value
2022-11-02T00:00:14.177Z,1.90
2022-11-02T00:01:14.236Z,1.80
2022-11-02T00:02:14.232Z,1.70
2022-11-02T00:03:14.276Z,1.50
2022-11-02T00:04:14.142Z,1.80
2022-11-02T00:05:14.150Z,1.90
2022-11-02T00:06:14.193Z,2.00
2022-11-02T00:07:14.152Z,1.90
2022-11-02T00:08:14.103Z,1.80
2022-11-02T00:09:14.088Z,2.10
2022-11-02T00:10:14.086Z,1.50
2022-11-02T00:11:14.112Z,1.80
2022-11-02T00:12:14.120Z,1.70
2022-11-02T00:13:14.043Z,1.90
2022-11-02T00:14:14.091Z,1.70
2022-11-02T00:15:14.070Z,1.70
2022-11-02T00:16:14.062Z,1.80
2022-11-02T00:17:14.056Z,1.80
2022-11-02T00:18:14.012Z,1.60
2022-11-02T00:19:14.097Z,1.90
2022-11-02T00:20:13.974Z,1.60
2022-11-02T00:21:15.929Z,1.80
2022-11-02T00:22:13.967Z,1.50
2022-11-02T00:23:14.093Z,1.70
2022-11-02T00:24:14.027Z,1.80
2022-11-02T00:25:13.934Z,1.80
2022-11-02T00:26:13.939Z,1.50
2022-11-02T00:27:14.128Z,1.80
2022-11-02T00:28:14.135Z,1.70
2022-11-02T00:29:13.948Z,1.60
2022-11-02T00:30:13.918Z,1.40
2022-11-02T00:31:13.887Z,1.70
2022-11-02T00:32:13.856Z,1.80
2022-11-02T00:33:13.914Z,1.60
2022-11-02T00:34:13.894Z,1.40
2022-11-02T00:35:13.838Z,1.80
2022-11-02T00:36:13.983Z,1.70
2022-11-02T00:37:14.392Z,1.50
2022-11-02T00:38:13.859Z,1.30
2022-11-02T00:39:13.874Z,1.60
2022-11-02T00:40:13.836Z,1.80
2022-11-02T00:41:13.959Z,1.50
2022-11-02T00:42:13.762Z,1.50
2022-11-02T00:43:13.765Z,1.50
2022-11-02T00:44:13.755Z,1.50
2022-11-02T00:45:13.757Z,1.50
2022-11-02T00:46:13.760Z,1.50
2022-11-02T00:47:13.731Z,1.40
2022-11-02T00:48:13.818Z,1.40
2022-11-02T00:49:13.702Z,1.50
2022-11-02T00:50:13.676Z,1.30
2022-11-02T00:51:13.667Z,1.40
2022-11-02T00:52:13.740Z,1.50
2022-11-02T00:53:13.750Z,1.10
2022-11-02T00:54:13.747Z,1.20
2022-11-02T00:55:13.630Z,1.70
2022-11-02T00:56:13.676Z,1.60
2022-11-02T00:57:13.613Z,1.50
2022-11-02T00:58:13.618Z,1.30
2022-11-02T00:59:13.689Z,1.20
2022-11-02T01:00:13.586Z,1.30
2022-11-02T01:01:13.790Z,1.40
2022-11-02T01:02:13.777Z,1.30
2022-11-02T01:03:13.653Z,1.10
2022-11-02T01:04:13.559Z,1.40
2022-11-02T01:05:13.572Z,1.30
2022-11-02T01:06:13.536Z,1.10
2022-11-02T01:07:13.511Z,1.80
2022-11-02T01:08:13.583Z,1.50
2022-11-02T01:09:13.549Z,1.10
2022-11-02T01:10:13.601Z,1.30
2022-11-02T01:11:13.567Z,1.20
2022-11-02T01:12:13.471Z,1.30
2022-11-02T01:13:13.459Z,1.30
2022-11-02T01:14:13.455Z,1.20
2022-11-02T01:15:13.587Z,1.40
2022-11-02T01:16:13.431Z,1.10
2022-11-02T01:17:13.439Z,1.30
2022-11-02T01:18:13.403Z,1.40
2022-11-02T01:19:13.455Z,1.50
2022-11-02T01:20:13.379Z,1.20
2022-11-02T01:21:13.476Z,1.30
2022-11-02T01:22:13.513Z,1.10
2022-11-02T01:23:13.390Z,1.30
2022-11-02T01:24:13.528Z,1.10
2022-11-02T01:25:13.465Z,1.30
2022-11-02T01:26:13.342Z,1.30
2022-11-02T01:27:13.443Z,1.30
2022-11-02T01:28:13.360Z,1.40
2022-11-02T01:29:13.332Z,1.20
2022-11-02T01:30:13.337Z,1.40
2022-11-02T01:31:13.294Z,1.00
2022-11-02T01:32:13.455Z,1.20
2022-11-02T01:33:13.257Z,1.40
2022-11-02T01:34:13.280Z,1.30
2022-11-02T01:35:13.332Z,1.20
2022-11-02T01:36:13.289Z,1.00
2022-11-02T01:37:13.238Z,1.20
2022-11-02T01:38:13.279Z,1.10
2022-11-02T01:39:13.593Z,1.20
2022-11-02T01:40:13.197Z,1.30
2022-11-02T01:41:13.250Z,1.00
2022-11-02T01:42:13.167Z,1.10
2022-11-02T01:43:13.321Z,1.00
2022-11-02T01:44:13.176Z,1.00
2022-11-02T01:45:13.293Z,1.20
2022-11-02T01:46:13.149Z,1.10
2022-11-02T01:47:13.210Z,1.00
2022-11-02T01:48:13.120Z,1.10
2022-11-02T01:49:13.188Z,0.90
2022-11-02T01:50:13.095Z,1.10
2022-11-02T01:51:13.116Z,1.10
2022-11-02T01:52:13.154Z,1.30
2022-11-02T01:53:13.062Z,1.20
2022-11-02T01:54:13.046Z,1.10
2022-11-02T01:55:13.101Z,1.30
2022-11-02T01:56:13.150Z,1.20
2022-11-02T01:57:13.105Z,1.10
2022-11-02T01:58:13.022Z,1.60
2022-11-02T01:59:13.118Z,1.30
2022-11-02T02:00:13.069Z,1.10
2022-11-02T02:01:20.322Z,1.30
2022-11-02T02:02:13.139Z,1.00
2022-11-02T02:03:13.137Z,1.30
2022-11-02T02:04:12.953Z,1.30
2022-11-02T02:05:12.932Z,1.40
2022-11-02T02:06:12.976Z,1.50
2022-11-02T02:07:12.938Z,1.50
2022-11-02T02:08:13.021Z,2.20
2022-11-02T02:09:12.902Z,2.00
2022-11-02T02:10:12.898Z,2.70
2022-11-02T02:11:12.919Z,3.80
2022-11-02T02:12:12.860Z,3.60
2022-11-02T02:13:12.862Z,3.10
2022-11-02T02:14:12.906Z,2.80
2022-11-02T02:15:12.834Z,1.80
2022-11-02T02:16:12.888Z,1.70
2022-11-02T02:17:12.885Z,1.40
2022-11-02T02:18:12.818Z,1.30
2022-11-02T02:19:12.865Z,1.40
2022-11-02T02:20:12.808Z,1.20
2022-11-02T02:21:12.831Z,1.10
2022-11-02T02:22:12.879Z,1.00
2022-11-02T02:23:12.763Z,1.00
2022-11-02T02:24:12.806Z,1.20
2022-11-02T02:25:12.779Z,0.90
2022-11-02T02:26:12.844Z,0.90
2022-11-02T02:27:12.707Z,1.00
2022-11-02T02:28:12.703Z,1.00
2022-11-02T02:29:12.719Z,1.30
2022-11-02T02:30:12.681Z,1.00
2022-11-02T02:31:12.695Z,1.00
2022-11-02T02:32:12.725Z,1.00
2022-11-02T02:33:12.711Z,1.10
2022-11-02T02:34:12.692Z,0.90
2022-11-02T02:35:12.640Z,1.00
2022-11-02T02:36:12.640Z,0.90
2022-11-02T02:37:12.723Z,1.00
2022-11-02T02:38:12.624Z,1.00
2022-11-02T02:39:12.595Z,0.80
2022-11-02T02:40:12.680Z,1.00
2022-11-02T02:41:12.669Z,1.20
2022-11-02T02:42:12.590Z,1.10
2022-11-02T02:43:12.605Z,1.30
2022-11-02T02:44:12.588Z,1.10
2022-11-02T02:45:12.529Z,1.10
2022-11-02T02:46:12.578Z,1.10
2022-11-02T02:47:12.518Z,1.20
2022-11-02T02:48:12.507Z,1.10
2022-11-02T02:49:12.559Z,1.10
2022-11-02T02:50:12.540Z,1.20
2022-11-02T02:51:12.499Z,1.10
2022-11-02T02:52:12.482Z,1.10
2022-11-02T02:53:12.529Z,1.20
2022-11-02T02:54:12.444Z,1.30
2022-11-02T02:55:12.471Z,1.20
2022-11-02T02:56:12.515Z,0.90
2022-11-02T02:57:12.460Z,1.00
2022-11-02T02:58:12.421Z,0.90
2022-11-02T02:59:12.401Z,1.00
2022-11-02T03:00:12.404Z,0.90
2022-11-02T03:01:12.582Z,1.10
2022-11-02T03:02:12.543Z,1.30
2022-11-02T03:03:12.424Z,0.80
2022-11-02T03:04:12.357Z,1.00
2022-11-02T03:05:12.340Z,0.90
2022-11-02T03:06:12.366Z,1.50
2022-11-02T03:07:12.342Z,1.80
2022-11-02T03:08:12.359Z,1.30
2022-11-02T03:09:12.298Z,1.40
2022-11-02T03:10:12.324Z,1.50
2022-11-02T03:11:12.283Z,1.50
2022-11-02T03:12:12.407Z,1.10
2022-11-02T03:13:12.255Z,1.50
2022-11-02T03:14:12.364Z,1.20
2022-11-02T03:15:12.281Z,1.30
2022-11-02T03:16:12.351Z,1.20
2022-11-02T03:17:12.224Z,1.40
2022-11-02T03:18:12.209Z,1.20
2022-11-02T03:19:12.257Z,1.50
2022-11-02T03:20:12.222Z,1.30
2022-11-02T03:21:12.185Z,1.60
2022-11-02T03:22:12.170Z,1.50
2022-11-02T03:23:12.173Z,1.20
2022-11-02T03:24:12.251Z,1.30
2022-11-02T03:25:12.232Z,1.30
2022-11-02T03:26:12.196Z,1.30
2022-11-02T03:27:12.134Z,1.20
2022-11-02T03:28:12.109Z,1.30
2022-11-02T03:29:12.212Z,1.60
2022-11-02T03:30:12.143Z,1.30
2022-11-02T03:31:12.077Z,1.10
2022-11-02T03:32:12.135Z,1.40
2022-11-02T03:33:12.101Z,1.30
2022-11-02T03:34:12.055Z,1.50
2022-11-02T03:35:12.088Z,1.60
2022-11-02T03:36:12.092Z,1.70
2022-11-02T03:37:12.074Z,1.70
2022-11-02T03:38:12.072Z,2.00
2022-11-02T03:39:12.069Z,1.80
2022-11-02T03:40:12.177Z,1.40
2022-11-02T03:41:11.995Z,1.50
2022-11-02T03:42:12.003Z,1.60
2022-11-02T03:43:12.017Z,1.50
2022-11-02T03:44:11.966Z,1.70
2022-11-02T03:45:11.934Z,1.50
2022-11-02T03:46:11.980Z,1.50
2022-11-02T03:47:11.938Z,1.40
2022-11-02T03:48:11.912Z,1.80
2022-11-02T03:49:11.942Z,1.50
2022-11-02T03:50:11.951Z,1.50
2022-11-02T03:51:11.888Z,1.50
2022-11-02T03:52:11.862Z,1.40
2022-11-02T03:53:11.944Z,1.50
2022-11-02T03:54:11.851Z,1.40
2022-11-02T03:55:11.843Z,1.40
2022-11-02T03:56:11.855Z,1.50
2022-11-02T03:57:11.825Z,1.60
2022-11-02T03:58:11.865Z,1.40
2022-11-02T03:59:11.807Z,1.60
2022-11-02T04:00:11.798Z,1.50
2022-11-02T04:01:11.822Z,1.70
2022-11-02T04:02:11.948Z,1.40
2022-11-02T04:03:11.832Z,1.60
2022-11-02T04:04:11.927Z,1.50
2022-11-02T04:05:11.749Z,1.30
2022-11-02T04:06:11.736Z,1.70
2022-11-02T04:07:12.089Z,1.80
2022-11-02T04:08:11.710Z,1.30
2022-11-02T04:09:11.798Z,1.70
2022-11-02T04:10:11.712Z,1.50
2022-11-02T04:11:11.782Z,1.70
2022-11-02T04:12:11.678Z,1.50
2022-11-02T04:13:11.664Z,1.50
2022-11-02T04:14:11.683Z,1.60
2022-11-02T04:15:11.705Z,1.50
2022-11-02T04:16:11.632Z,1.40
2022-11-02T04:17:11.632Z,1.90
2022-11-02T04:18:11.614Z,1.30
2022-11-02T04:19:11.688Z,1.40
2022-11-02T04:20:11.595Z,1.30
2022-11-02T04:21:11.592Z,1.40
2022-11-02T04:22:11.616Z,1.40
2022-11-02T04:23:11.692Z,1.50
2022-11-02T04:24:11.553Z,1.50
2022-11-02T04:25:11.630Z,1.20
2022-11-02T04:26:11.532Z,1.00
2022-11-02T04:27:12.356Z,1.60
2022-11-02T04:28:11.565Z,1.40
2022-11-02T04:29:11.513Z,1.20
2022-11-02T04:30:11.495Z,1.10
2022-11-02T04:31:11.507Z,1.10
2022-11-02T04:32:11.532Z,1.20
2022-11-02T04:33:11.483Z,1.20
2022-11-02T04:34:11.449Z,1.20
2022-11-02T04:35:11.456Z,1.10
2022-11-02T04:36:11.438Z,1.10
2022-11-02T04:37:11.440Z,1.60
2022-11-02T04:38:11.486Z,1.40
2022-11-02T04:39:11.445Z,1.30
2022-11-02T04:40:11.489Z,1.50
2022-11-02T04:41:11.450Z,1.30
2022-11-02T04:42:11.436Z,1.20
2022-11-02T04:43:11.364Z,1.20
2022-11-02T04:44:11.361Z,1.30
2022-11-02T04:45:11.374Z,1.20
2022-11-02T04:46:11.374Z,1.30
2022-11-02T04:47:11.385Z,1.30
2022-11-02T04:48:11.309Z,1.40
2022-11-02T04:49:11.383Z,1.30
2022-11-02T04:50:11.294Z,1.40
2022-11-02T04:51:11.290Z,1.40
2022-11-02T04:52:11.270Z,1.40
2022-11-02T04:53:11.319Z,1.20
2022-11-02T04:54:11.317Z,1.60
2022-11-02T04:55:11.255Z,1.40
2022-11-02T04:56:11.242Z,1.30
2022-11-02T04:57:11.276Z,1.40
2022-11-02T04:58:11.207Z,1.70
2022-11-02T04:59:11.209Z,1.30
2022-11-02T05:00:11.662Z,1.60
2022-11-02T05:01:11.248Z,1.50
2022-11-02T05:02:11.265Z,1.70
2022-11-02T05:03:12.508Z,1.80
2022-11-02T05:04:11.180Z,1.60
2022-11-02T05:05:11.178Z,1.60
2022-11-02T05:06:11.196Z,2.00
2022-11-02T05:07:11.132Z,1.40
2022-11-02T05:08:11.111Z,1.60
2022-11-02T05:09:11.104Z,2.10
2022-11-02T05:10:11.141Z,1.40
2022-11-02T05:11:11.345Z,1.90
2022-11-02T05:12:11.087Z,1.60
2022-11-02T05:13:11.069Z,1.60
2022-11-02T05:14:11.059Z,1.40
2022-11-02T05:15:11.063Z,1.70
2022-11-02T05:16:11.056Z,1.50
2022-11-02T05:17:11.089Z,1.60
2022-11-02T05:18:16.169Z,1.80
2022-11-02T05:19:11.273Z,1.80
2022-11-02T05:20:11.007Z,1.70
2022-11-02T05:21:10.998Z,1.90
2022-11-02T05:22:10.994Z,1.70
2022-11-02T05:23:11.039Z,1.70
2022-11-02T05:24:11.028Z,1.40
2022-11-02T05:25:10.950Z,2.20
2022-11-02T05:26:10.959Z,1.90
2022-11-02T05:27:10.991Z,1.80
2022-11-02T05:28:10.938Z,1.80
2022-11-02T05:29:10.961Z,2.00
2022-11-02T05:30:10.846Z,1.50
2022-11-02T05:31:10.951Z,1.90
2022-11-02T05:32:10.875Z,1.50
2022-11-02T05:33:10.882Z,1.40
2022-11-02T05:34:11.005Z,2.00
2022-11-02T05:35:10.845Z,1.50
2022-11-02T05:36:10.886Z,2.10
2022-11-02T05:37:10.819Z,1.50
2022-11-02T05:38:10.771Z,1.70
2022-11-02T05:39:10.808Z,1.80
2022-11-02T05:40:10.883Z,1.90
2022-11-02T05:41:10.735Z,2.10
2022-11-02T05:42:10.781Z,1.60
2022-11-02T05:43:10.750Z,1.80
2022-11-02T05:44:10.696Z,2.00
2022-11-02T05:45:10.777Z,1.80
2022-11-02T05:46:10.763Z,1.70
2022-11-02T05:47:11.098Z,1.50
2022-11-02T05:48:10.663Z,1.70
2022-11-02T05:49:10.781Z,1.70
2022-11-02T05:50:10.727Z,1.50
2022-11-02T05:51:10.673Z,1.50
2022-11-02T05:52:10.623Z,1.40
2022-11-02T05:53:10.793Z,1.40
2022-11-02T05:54:10.659Z,1.60
2022-11-02T05:55:10.599Z,1.40
2022-11-02T05:56:10.583Z,1.60
2022-11-02T05:57:10.607Z,1.30
2022-11-02T05:58:10.569Z,1.40
2022-11-02T05:59:10.561Z,1.30
2022-11-02T06:00:10.604Z,1.70
2022-11-02T06:01:10.599Z,1.10
2022-11-02T06:02:10.623Z,1.30
2022-11-02T06:03:10.572Z,1.40
2022-11-02T06:04:10.602Z,1.20
2022-11-02T06:05:10.535Z,1.30
2022-11-02T06:06:10.550Z,1.10
2022-11-02T06:07:10.540Z,1.40
2022-11-02T06:08:10.457Z,1.60
2022-11-02T06:09:10.462Z,1.30
2022-11-02T06:10:10.459Z,1.50
2022-11-02T06:11:10.500Z,1.30
2022-11-02T06:12:10.425Z,1.50
2022-11-02T06:13:10.571Z,1.50
2022-11-02T06:14:10.421Z,1.40
2022-11-02T06:15:10.403Z,1.70
2022-11-02T06:16:10.409Z,1.80
2022-11-02T06:17:10.451Z,1.60
2022-11-02T06:18:10.414Z,1.60
2022-11-02T06:19:10.449Z,1.20
2022-11-02T06:20:10.344Z,1.60
2022-11-02T06:21:10.353Z,1.40
2022-11-02T06:22:10.382Z,1.60
2022-11-02T06:23:10.345Z,1.50
2022-11-02T06:24:10.323Z,1.60
2022-11-02T06:25:10.305Z,1.40
2022-11-02T06:26:10.456Z,1.50
2022-11-02T06:27:10.324Z,1.90
2022-11-02T06:28:10.502Z,1.40
2022-11-02T06:29:10.424Z,1.60
2022-11-02T06:30:10.292Z,1.50
2022-11-02T06:31:10.240Z,1.70
2022-11-02T06:32:10.272Z,1.40
2022-11-02T06:33:10.605Z,1.60
2022-11-02T06:34:10.213Z,1.30
2022-11-02T06:35:10.212Z,1.30
2022-11-02T06:36:10.197Z,1.90
2022-11-02T06:37:10.414Z,1.60
2022-11-02T06:38:10.186Z,1.70
2022-11-02T06:39:10.163Z,1.50
2022-11-02T06:40:10.167Z,1.80
2022-11-02T06:41:10.180Z,1.50
2022-11-02T06:42:10.125Z,1.40
2022-11-02T06:43:16.549Z,1.50
2022-11-02T06:44:10.115Z,2.00
2022-11-02T06:45:10.094Z,1.40
2022-11-02T06:46:10.614Z,1.60
2022-11-02T06:47:10.091Z,2.00
2022-11-02T06:48:10.067Z,1.40
2022-11-02T06:49:10.060Z,1.60
2022-11-02T06:50:10.056Z,1.60
2022-11-02T06:51:10.190Z,1.70
2022-11-02T06:52:10.072Z,1.70
2022-11-02T06:53:10.026Z,1.70
2022-11-02T06:54:10.117Z,1.80
2022-11-02T06:55:10.004Z,1.80
2022-11-02T06:56:09.998Z,1.90
2022-11-02T06:57:09.982Z,1.60
2022-11-02T06:58:10.015Z,1.90
2022-11-02T06:59:09.980Z,1.60
2022-11-02T07:01:10.208Z,1.70
2022-11-02T07:02:10.068Z,1.80
2022-11-02T07:03:10.049Z,1.80
2022-11-02T07:04:09.957Z,2.00
2022-11-02T07:05:09.904Z,2.20
2022-11-02T07:06:14.121Z,1.60
2022-11-02T07:07:09.923Z,1.60
2022-11-02T07:08:09.869Z,1.70
2022-11-02T07:09:09.890Z,1.80
2022-11-02T07:10:09.886Z,1.60
2022-11-02T07:11:09.859Z,1.40
2022-11-02T07:12:09.885Z,1.60
2022-11-02T07:13:09.922Z,1.60
2022-11-02T07:14:09.881Z,1.60
2022-11-02T07:15:09.826Z,1.80
2022-11-02T07:16:09.831Z,1.70
2022-11-02T07:17:09.833Z,1.70
2022-11-02T07:18:09.768Z,1.80
2022-11-02T07:19:09.765Z,1.30
2022-11-02T07:20:09.752Z,1.70
2022-11-02T07:21:09.818Z,1.30
2022-11-02T07:22:09.811Z,1.30
2022-11-02T07:23:10.210Z,1.40
2022-11-02T07:24:09.753Z,1.40
2022-11-02T07:25:09.743Z,1.30
2022-11-02T07:26:09.694Z,1.50
2022-11-02T07:27:09.677Z,1.50
2022-11-02T07:28:09.752Z,1.20
2022-11-02T07:29:09.661Z,1.80
2022-11-02T07:30:09.695Z,1.20
2022-11-02T07:31:09.639Z,1.20
2022-11-02T07:32:09.639Z,1.40
2022-11-02T07:33:09.685Z,1.30
2022-11-02T07:34:14.049Z,1.90
2022-11-02T07:35:09.622Z,1.50
2022-11-02T07:36:09.590Z,1.70
2022-11-02T07:37:09.611Z,1.80
2022-11-02T07:38:09.593Z,1.50
2022-11-02T07:39:09.580Z,1.40
2022-11-02T07:40:09.591Z,1.80
2022-11-02T07:41:09.602Z,1.60
2022-11-02T07:42:09.534Z,1.60
2022-11-02T07:43:09.704Z,1.30
2022-11-02T07:44:09.509Z,1.50
2022-11-02T07:45:09.523Z,1.70
2022-11-02T07:46:09.493Z,1.50
2022-11-02T07:47:09.477Z,1.60
2022-11-02T07:48:09.488Z,1.50
2022-11-02T07:49:09.465Z,1.30
2022-11-02T07:50:09.454Z,1.50
2022-11-02T07:51:09.459Z,1.30
2022-11-02T07:52:09.472Z,1.30
2022-11-02T07:53:09.439Z,1.60
2022-11-02T07:54:09.429Z,1.50
2022-11-02T07:55:09.395Z,1.50
2022-11-02T07:56:09.466Z,1.40
2022-11-02T07:57:09.411Z,1.10
2022-11-02T07:58:09.372Z,1.40
2022-11-02T07:59:09.390Z,1.10
2022-11-02T08:00:09.357Z,1.40
2022-11-02T08:01:09.428Z,1.30
2022-11-02T08:02:09.377Z,1.30
2022-11-02T08:03:09.926Z,1.10
2022-11-02T08:04:09.447Z,1.10
2022-11-02T08:05:09.300Z,1.50
2022-11-02T08:06:09.326Z,1.00
2022-11-02T08:07:09.274Z,1.10
2022-11-02T08:08:09.480Z,1.20
2022-11-02T08:09:09.279Z,1.30
2022-11-02T08:10:09.260Z,1.00
2022-11-02T08:11:09.258Z,1.10
2022-11-02T08:12:09.234Z,1.10
2022-11-02T08:13:09.267Z,1.10
2022-11-02T08:14:09.215Z,1.20
2022-11-02T08:15:09.192Z,1.30
2022-11-02T08:16:09.234Z,1.00
2022-11-02T08:17:09.229Z,1.20
2022-11-02T08:18:09.343Z,1.30
2022-11-02T08:19:09.191Z,1.20
2022-11-02T08:20:09.149Z,1.00
2022-11-02T08:21:09.144Z,1.20
2022-11-02T08:22:09.188Z,1.10
2022-11-02T08:23:09.144Z,1.10
2022-11-02T08:24:09.111Z,1.00
2022-11-02T08:25:09.120Z,1.10
2022-11-02T08:26:09.114Z,1.00
2022-11-02T08:27:09.072Z,1.10
2022-11-02T08:28:09.089Z,1.00
2022-11-02T08:29:09.064Z,1.10
2022-11-02T08:30:09.628Z,0.90
2022-11-02T08:31:09.028Z,0.90
2022-11-02T08:32:09.094Z,1.10
2022-11-02T08:33:09.029Z,1.00
2022-11-02T08:34:13.814Z,1.30
2022-11-02T08:35:09.070Z,0.90
2022-11-02T08:36:09.650Z,1.10
2022-11-02T08:37:09.827Z,1.00
2022-11-02T08:38:09.009Z,0.80
2022-11-02T08:39:13.359Z,0.90
2022-11-02T08:40:09.037Z,0.70
2022-11-02T08:41:09.127Z,0.90
2022-11-02T08:42:08.944Z,1.10
2022-11-02T08:43:08.911Z,0.90
2022-11-02T08:44:09.366Z,1.00
2022-11-02T08:45:08.956Z,0.90
2022-11-02T08:46:14.915Z,1.00
2022-11-02T08:47:09.675Z,0.90
2022-11-02T08:48:08.978Z,1.00
2022-11-02T08:49:08.913Z,0.80
2022-11-02T08:50:08.913Z,1.10
2022-11-02T08:51:08.877Z,0.80
2022-11-02T08:52:08.969Z,1.00
2022-11-02T08:53:08.901Z,0.90
2022-11-02T08:54:09.027Z,1.50
2022-11-02T08:55:08.875Z,1.30
2022-11-02T08:56:08.799Z,1.20
2022-11-02T08:57:09.029Z,1.60
2022-11-02T08:58:08.871Z,1.60
2022-11-02T08:59:13.687Z,1.60
2022-11-02T09:00:10.425Z,2.10
2022-11-02T09:01:09.743Z,2.40
2022-11-02T09:02:08.955Z,1.80
2022-11-02T09:03:08.724Z,1.80
2022-11-02T09:04:08.833Z,2.00
2022-11-02T09:05:08.753Z,1.70
2022-11-02T09:06:08.708Z,2.00
2022-11-02T09:07:08.735Z,1.80
2022-11-02T09:08:08.859Z,2.00
2022-11-02T09:09:08.702Z,1.70
2022-11-02T09:10:08.687Z,2.00
2022-11-02T09:11:09.515Z,1.80
2022-11-02T09:12:29.737Z,1.80
2022-11-02T09:13:08.954Z,1.70
2022-11-02T09:14:09.010Z,1.90
2022-11-02T09:15:08.667Z,1.80
2022-11-02T09:16:08.871Z,1.50
2022-11-02T09:17:10.005Z,1.80
2022-11-02T09:18:08.832Z,2.20
2022-11-02T09:19:08.818Z,2.20
2022-11-02T09:20:08.623Z,1.70
2022-11-02T09:21:09.828Z,1.90
2022-11-02T09:22:08.769Z,1.60
2022-11-02T09:23:08.956Z,1.60
2022-11-02T09:24:08.753Z,1.80
2022-11-02T09:25:08.594Z,1.90
2022-11-02T09:26:08.714Z,1.70
2022-11-02T09:27:08.745Z,1.80
2022-11-02T09:28:09.119Z,1.30
2022-11-02T09:29:08.551Z,1.60
2022-11-02T09:30:08.481Z,1.80
2022-11-02T09:31:10.786Z,1.30
2022-11-02T09:32:08.574Z,1.70
2022-11-02T09:33:08.615Z,1.20
2022-11-02T09:34:08.599Z,1.70
2022-11-02T09:35:08.456Z,1.20
2022-11-02T09:36:08.504Z,1.20
2022-11-02T09:37:10.727Z,0.90
2022-11-02T09:38:08.409Z,1.40
2022-11-02T09:39:08.424Z,1.50
2022-11-02T09:40:08.725Z,1.40
2022-11-02T09:41:08.721Z,0.90
2022-11-02T09:42:08.742Z,0.60
2022-11-02T09:43:08.701Z,0.70
2022-11-02T09:44:08.459Z,0.80
2022-11-02T09:45:08.352Z,0.70
2022-11-02T09:46:08.778Z,0.70
2022-11-02T09:47:55.966Z,0.70
2022-11-02T09:48:26.741Z,0.70
2022-11-02T09:49:09.296Z,1.10
2022-11-02T09:50:09.148Z,0.80
2022-11-02T09:51:08.266Z,0.50
2022-11-02T09:52:08.413Z,0.70
2022-11-02T09:53:08.494Z,0.70
2022-11-02T09:54:11.779Z,1.00
2022-11-02T09:55:08.279Z,0.80
2022-11-02T09:56:08.206Z,0.70
2022-11-02T09:57:08.186Z,0.80
2022-11-02T09:58:08.155Z,0.70
2022-11-02T09:59:08.227Z,0.90
2022-11-02T10:00:08.140Z,0.70
2022-11-02T10:01:08.130Z,0.70
2022-11-02T10:02:08.117Z,0.90
2022-11-02T10:03:08.163Z,0.60
2022-11-02T10:04:08.177Z,0.90
2022-11-02T10:05:08.092Z,0.70
2022-11-02T10:06:08.103Z,0.70
2022-11-02T10:07:08.875Z,0.80
2022-11-02T10:08:08.345Z,0.80
2022-11-02T10:09:08.074Z,0.80
2022-11-02T10:10:08.079Z,0.90
2022-11-02T10:11:08.477Z,0.80
2022-11-02T10:12:08.020Z,0.90
2022-11-02T10:13:08.169Z,0.70
2022-11-02T10:14:08.646Z,0.80
2022-11-02T10:15:08.006Z,0.70
2022-11-02T10:16:07.981Z,1.00
2022-11-02T10:17:07.970Z,0.90
2022-11-02T10:18:08.000Z,0.70
2022-11-02T10:19:07.943Z,0.80
2022-11-02T10:20:07.934Z,0.80
2022-11-02T10:21:07.977Z,0.70
2022-11-02T10:22:07.915Z,0.80
2022-11-02T10:23:08.137Z,0.80
2022-11-02T10:24:07.900Z,0.80
2022-11-02T10:25:07.946Z,0.80
2022-11-02T10:26:08.005Z,0.60
2022-11-02T10:27:13.013Z,0.60
2022-11-02T10:28:07.956Z,0.90
2022-11-02T10:29:07.904Z,0.80
2022-11-02T10:30:07.870Z,1.10
2022-11-02T10:31:11.766Z,0.60
2022-11-02T10:32:07.831Z,0.70
2022-11-02T10:33:07.876Z,0.80
2022-11-02T10:34:07.871Z,0.80
2022-11-02T10:35:29.921Z,1.00
2022-11-02T10:36:23.171Z,0.90
2022-11-02T10:37:07.822Z,1.10
2022-11-02T10:38:13.482Z,0.80
2022-11-02T10:39:07.779Z,0.80
2022-11-02T10:40:07.740Z,0.80
2022-11-02T10:41:07.742Z,0.80
2022-11-02T10:42:07.819Z,1.00
2022-11-02T10:43:07.761Z,0.80
2022-11-02T10:44:07.736Z,0.90
2022-11-02T10:45:07.706Z,0.90
2022-11-02T10:46:07.723Z,0.90
2022-11-02T10:47:07.884Z,1.00
2022-11-02T10:48:07.951Z,1.10
2022-11-02T10:49:07.645Z,1.00
2022-11-02T10:50:12.064Z,1.00
2022-11-02T10:51:07.638Z,0.80
2022-11-02T10:52:07.653Z,0.80
2022-11-02T10:53:35.296Z,0.90
2022-11-02T10:54:07.775Z,0.80
2022-11-02T10:55:07.640Z,0.80
2022-11-02T10:56:07.589Z,0.90
2022-11-02T10:57:07.577Z,0.60
2022-11-02T10:58:08.271Z,0.80
2022-11-02T10:59:07.613Z,0.50
2022-11-02T11:00:07.566Z,0.60
2022-11-02T11:01:07.755Z,0.70
2022-11-02T11:02:07.598Z,0.80
2022-11-02T11:03:07.644Z,0.90
2022-11-02T11:04:07.522Z,0.90
2022-11-02T11:05:07.541Z,0.80
2022-11-02T11:06:07.474Z,1.10
2022-11-02T11:07:07.462Z,0.90
2022-11-02T11:08:07.841Z,0.80
2022-11-02T11:09:07.500Z,0.80
2022-11-02T11:10:07.423Z,0.80
2022-11-02T11:11:07.425Z,0.80
2022-11-02T11:12:07.544Z,0.90
2022-11-02T11:13:07.799Z,0.80
2022-11-02T11:16:08.810Z,0.80
2022-11-02T11:20:07.651Z,0.60
2022-11-02T11:21:07.327Z,0.80
2022-11-02T11:22:07.312Z,1.00
2022-11-02T11:23:07.560Z,0.70
2022-11-02T11:24:07.339Z,0.60
2022-11-02T11:25:07.286Z,0.80
2022-11-02T11:26:07.373Z,0.70
2022-11-02T11:27:07.281Z,1.00
2022-11-02T11:28:07.571Z,0.70
2022-11-02T11:29:07.241Z,0.90
2022-11-02T11:30:07.240Z,0.80
2022-11-02T11:31:07.244Z,0.60
2022-11-02T11:32:07.319Z,0.70
2022-11-02T11:33:07.749Z,1.00
2022-11-02T11:34:07.232Z,0.90
2022-11-02T11:35:07.227Z,0.90
2022-11-02T11:36:07.186Z,1.00
2022-11-02T11:37:07.238Z,0.80
2022-11-02T11:38:07.474Z,0.50
2022-11-02T11:39:07.265Z,0.90
2022-11-02T11:40:07.269Z,1.00
2022-11-02T11:41:07.258Z,1.00
2022-11-02T11:42:07.147Z,0.90
2022-11-02T11:43:07.185Z,1.20
2022-11-02T11:44:07.138Z,1.00
2022-11-02T11:45:07.080Z,1.10
2022-11-02T11:46:07.397Z,1.00
2022-11-02T11:47:07.061Z,0.80
2022-11-02T11:48:07.423Z,0.70
2022-11-02T11:49:07.092Z,0.80
2022-11-02T11:50:12.342Z,1.00
2022-11-02T11:51:07.134Z,0.70
2022-11-02T11:52:07.148Z,0.80
2022-11-02T11:53:07.371Z,0.80
2022-11-02T11:54:06.999Z,0.80
2022-11-02T11:55:07.016Z,0.70
2022-11-02T11:56:07.009Z,0.60
2022-11-02T11:57:07.015Z,0.80
2022-11-02T11:58:07.410Z,0.60
2022-11-02T11:59:06.942Z,0.70
2022-11-02T12:00:06.933Z,0.60
2022-11-02T12:01:10.194Z,0.80
2022-11-02T12:02:07.062Z,0.80
2022-11-02T12:03:07.667Z,0.70
2022-11-02T12:04:06.935Z,0.70
2022-11-02T12:05:06.993Z,0.60
2022-11-02T12:06:06.872Z,0.70
2022-11-02T12:07:06.869Z,0.70
2022-11-02T12:08:07.332Z,0.80
2022-11-02T12:09:06.891Z,1.10
2022-11-02T12:10:06.822Z,0.70
2022-11-02T12:11:06.931Z,1.00
2022-11-02T12:12:06.801Z,0.60
2022-11-02T12:13:07.330Z,0.60
2022-11-02T12:14:06.778Z,0.60
2022-11-02T12:15:07.260Z,0.70
2022-11-02T12:16:06.816Z,0.80
2022-11-02T12:17:06.761Z,0.80
2022-11-02T12:18:07.154Z,0.90
2022-11-02T12:19:06.727Z,0.60
2022-11-02T12:20:06.741Z,0.60
2022-11-02T12:21:06.736Z,0.80
2022-11-02T12:22:06.802Z,0.60
2022-11-02T12:23:07.127Z,0.80
2022-11-02T12:24:06.753Z,0.60
2022-11-02T12:25:06.718Z,0.80
2022-11-02T12:26:06.661Z,0.50
2022-11-02T12:27:06.704Z,0.70
2022-11-02T12:28:06.673Z,0.80
2022-11-02T12:29:06.669Z,0.60
2022-11-02T12:30:06.740Z,0.70
2022-11-02T12:31:06.689Z,0.80
2022-11-02T12:32:06.604Z,0.50
2022-11-02T12:33:07.030Z,0.60
2022-11-02T12:34:06.579Z,0.70
2022-11-02T12:35:27.730Z,0.70
2022-11-02T12:36:06.574Z,0.80
2022-11-02T12:38:07.644Z,0.70
2022-11-02T12:39:06.627Z,0.60
2022-11-02T12:40:06.522Z,0.60
2022-11-02T12:41:06.555Z,0.70
2022-11-02T12:42:06.569Z,0.60
2022-11-02T12:43:06.924Z,0.60
2022-11-02T12:44:06.544Z,0.60
2022-11-02T12:45:06.478Z,0.80
2022-11-02T12:46:06.495Z,0.60
2022-11-02T12:47:06.451Z,0.70
2022-11-02T12:48:06.863Z,0.70
2022-11-02T12:49:06.619Z,0.60
2022-11-02T12:50:06.432Z,0.60
2022-11-02T12:51:06.465Z,0.50
2022-11-02T12:52:06.419Z,0.70
2022-11-02T12:53:06.758Z,0.60
2022-11-02T12:54:06.396Z,0.70
2022-11-02T12:55:06.366Z,0.70
2022-11-02T12:56:06.412Z,0.90
2022-11-02T12:57:06.382Z,0.70
2022-11-02T12:58:06.855Z,0.70
2022-11-02T12:59:06.343Z,0.70
2022-11-02T13:00:06.319Z,0.60
2022-11-02T13:01:12.391Z,0.60
2022-11-02T13:03:06.637Z,0.60
2022-11-02T13:04:06.420Z,0.60
2022-11-02T13:05:06.287Z,0.60
2022-11-02T13:06:06.332Z,0.90
2022-11-02T13:07:06.292Z,0.50
2022-11-02T13:08:06.681Z,0.80
2022-11-02T13:09:06.226Z,0.80
2022-11-02T13:10:06.217Z,0.80
2022-11-02T13:11:06.311Z,0.70
2022-11-02T13:12:06.255Z,0.90
2022-11-02T13:13:06.590Z,0.90
2022-11-02T13:14:06.269Z,1.00
2022-11-02T13:15:11.805Z,0.70
2022-11-02T13:16:06.185Z,0.70
2022-11-02T13:17:06.158Z,0.60
2022-11-02T13:18:06.549Z,0.70
2022-11-02T13:19:06.199Z,0.80
2022-11-02T13:20:06.124Z,0.80
2022-11-02T13:21:06.141Z,0.80
2022-11-02T13:22:06.124Z,0.90
2022-11-02T13:23:06.687Z,0.60
2022-11-02T13:24:06.180Z,0.60
2022-11-02T13:25:06.138Z,0.60
2022-11-02T13:26:06.085Z,0.90